• Join FlightAware (Why Join?)
  • Login
  • US Flag 
04:57AM EDT


 

Airport Tracker/Info


-or-


 

Live Flight TrackerFlight Track Log ✈ SWA3675 ✈ 08-May-2013 ✈ KBWI - KORF

Flight Track Log - Related Links

Times and Time Zones

All times are in EDT time to prevent confusion due to time zone crossing. See the SWA3675 flight status page for this flight to view local times or setup timezone preferences in your user account.

Time Position Orientation Groundspeed Altitude Reporting Facility
EDT Latitude Longitude Course Direction KTS MPH feet Rate Location/Type
09:20PM 39.1350 -76.7475 184° South 226 260 5,400  Level Washington Center
09:21PM 39.0833 -76.7000 144° Southeast 269 310 8,400 2,880 Climbing Potomac TRACON
09:23PM 38.9533 -76.5419 137° Southeast 316 364 14,000 1,680 Climbing Washington Center
09:24PM 38.8597 -76.5272 173° South 308 354 14,000  Level Washington Center
09:25PM 38.7190 -76.7031 184° South  Level FlightAware Approximate
09:25PM 38.7619 -76.5103 172° South 335 386 14,000  Level Washington Center
09:26PM 38.6619 -76.4931 172° South 354 407 14,000  Level Washington Center
09:27PM 38.5661 -76.4811 174° South 359 413 14,000  Level Washington Center
09:28PM 38.4661 -76.4642 172° South 359 413 14,000  Level Washington Center
09:29PM 38.3703 -76.4472 172° South 359 413 14,000 -540 Level Washington Center
09:30PM 38.2744 -76.4275 171° South 354 407 13,000 -1,020 Descending Washington Center
09:31PM 38.1786 -76.4133 173° South 354 407 12,000 -960 Descending Washington Center
09:32PM 38.0786 -76.3964 172° South 354 407 11,100 -960 Descending Washington Center
09:33PM 37.9850 -76.3822 173° South 349 402 10,100 -720 Descending Washington Center
09:34PM 37.9203 -76.3761 176° South 340 391 10,000 -120 Descending Washington Center
09:34PM 37.8911 -76.3681 168° South 349 402 10,000  Level Washington Center
09:34PM 37.8433 -76.3650 177° South 336 387 10,000  Level Washington Center
09:35PM 37.7994 -76.3539 169° South 349 402 10,000  Level Washington Center
09:35PM 37.7517 -76.3431 170° South 338 389 10,000  Level Washington Center
09:36PM 37.7081 -76.3267 163° South 349 402 10,000 -120 Level Washington Center
09:36PM 37.6642 -76.3158 169° South 323 372 9,900 4,080 Descending Washington Center
09:37PM 37.6267 -76.3050 167° South 328 377 14,000 -900 Climbing Washington Center
09:38PM 37.5789 -76.2942 170° South 264 304 8,900 -5,340 Descending Washington Center
09:38PM 37.5539 -76.2861 166° South 294 338 8,600 -1,440 Descending Washington Center
09:39PM 37.5058 -76.2778 172° South 267 307 7,500 -1,500 Descending Washington Center
09:39PM 37.4808 -76.2669 161° South 274 315 7,100 -1,620 Descending Washington Center
09:40PM 37.4247 -76.2533 169° South 266 306 5,700 -1,800 Descending Washington Center
09:40PM 37.3997 -76.2453 166° South 274 315 5,300 -1,440 Descending Washington Center
09:41PM 37.3581 -76.2347 169° South 262 302 4,500 -1,380 Descending Washington Center
09:41PM 37.3289 -76.2264 167° South 274 315 4,000 -1,380 Descending Washington Center
09:42PM 37.2914 -76.2183 170° South 253 291 3,100 -1,380 Descending Washington Center
09:42PM 37.2622 -76.2078 164° South 261 300 2,600 -900 Descending Washington Center
09:43PM 37.2164 -76.1994 172° South 232 267 2,100 -600 Descending Washington Center
09:43PM 37.1997 -76.1917 160° South 249 287 2,000 -240 Descending Washington Center
09:44PM 37.1539 -76.1833 172° South 218 251 1,900 -300 Descending Washington Center
09:45PM 37.0956 -76.1672 168° South 216 249 1,500 -180 Descending Washington Center
09:46PM 37.0456 -76.1539 168° South 194 223 1,600 60 Climbing Washington Center